Terminal Aerodrome Forecast
Issued by NWS

Home | Current Version | Previous Version | Text Only | Print | Product List | Glossary On
Versions: 1 2 3 4 5 6 7 8 9 10 11 12 13 14 15 16 17 18 19
000
FTAK31 PANC 240543
TAFACD
TAF
PACD 240543Z 2406/2506 29015KT P6SM -SHRA SCT025 OVC040
      TEMPO 2406/2410 6SM -SHRA BKN025 OVC035
     FM241200 29010G18KT P6SM BKN030 OVC050
     FM242100 27018G25KT P6SM -SHRA BKN020 OVC040=

USA.gov is the U.S. government's official web portal to all federal, state and local government web resources and services.